Time;durP1;ratioP1;P1;durP2;ratioP2;P2;SDS_P1;SDS_P2;PMS_P1;PMS_P2;Temp;Humidity;BMP_temperature;BMP_pressure;BME280_temperature;BME280_humidity;BME280_pressure;Samples;Min_cycle;Max_cycle;Signal;HPM_P1;HPM_P2
2022/09/02 00:01:16;;;;;;;2.70;1.40;;;;;;;;;;5035342;28;20188;-77
2022/09/02 00:03:42;;;;;;;1.53;1.43;;;;;;;;;;5051853;28;20626;-78
2022/09/02 00:06:09;;;;;;;2.03;1.20;;;;;;;;;;5035378;28;20259;-78
2022/09/02 00:08:35;;;;;;;1.77;1.20;;;;;;;;;;5051996;28;20177;-77
2022/09/02 00:11:02;;;;;;;2.17;1.37;;;;;;;;;;5051636;28;20268;-77
2022/09/02 00:13:29;;;;;;;1.60;1.50;;;;;;;;;;5052346;28;20205;-78
2022/09/02 00:15:55;;;;;;;2.03;1.37;;;;;;;;;;5052031;28;20219;-78
2022/09/02 00:18:23;;;;;;;1.73;1.37;;;;;;;;;;5051879;28;20644;-77
2022/09/02 00:20:49;;;;;;;2.27;1.30;;;;;;;;;;5035815;28;20648;-77
2022/09/02 00:23:15;;;;;;;1.47;1.37;;;;;;;;;;5035391;28;20210;-78
2022/09/02 00:25:43;;;;;;;1.53;1.30;;;;;;;;;;5035485;28;20223;-77
2022/09/02 00:28:10;;;;;;;1.43;1.20;;;;;;;;;;5035431;28;20529;-77
2022/09/02 00:30:36;;;;;;;1.63;1.40;;;;;;;;;;5051861;28;20173;-77
2022/09/02 00:33:02;;;;;;;1.80;1.40;;;;;;;;;;5051506;28;20596;-77
2022/09/02 00:35:28;;;;;;;2.27;1.40;;;;;;;;;;5035545;28;20644;-77
2022/09/02 00:37:54;;;;;;;1.90;1.50;;;;;;;;;;5051900;28;20181;-77
2022/09/02 00:40:22;;;;;;;1.83;1.50;;;;;;;;;;5035363;28;20242;-77
2022/09/02 00:42:48;;;;;;;1.60;1.40;;;;;;;;;;5052030;28;20273;-77
2022/09/02 00:45:14;;;;;;;1.97;1.40;;;;;;;;;;5035321;28;20208;-78
2022/09/02 00:47:40;;;;;;;1.57;1.47;;;;;;;;;;5035588;28;20181;-77
2022/09/02 00:50:08;;;;;;;1.93;1.60;;;;;;;;;;5051932;28;20184;-77
2022/09/02 00:52:37;;;;;;;3.57;1.60;;;;;;;;;;5035583;28;20596;-78
2022/09/02 00:55:32;;;;;;;2.20;1.60;;;;;;;;;;5035363;28;20204;-78
2022/09/02 00:58:00;;;;;;;1.30;1.20;;;;;;;;;;5035164;28;20276;-77
2022/09/02 01:00:27;;;;;;;1.43;1.30;;;;;;;;;;5052156;28;20177;-77
2022/09/02 01:02:55;;;;;;;2.17;1.40;;;;;;;;;;5052021;28;20177;-77
2022/09/02 01:05:23;;;;;;;3.27;1.27;;;;;;;;;;5051878;28;20240;-78
2022/09/02 01:07:50;;;;;;;1.83;1.50;;;;;;;;;;5035554;28;20192;-77
2022/09/02 01:10:18;;;;;;;1.73;1.30;;;;;;;;;;5035073;28;20319;-77
2022/09/02 01:12:44;;;;;;;1.50;1.40;;;;;;;;;;5035885;28;20210;-77
2022/09/02 01:15:11;;;;;;;1.30;1.20;;;;;;;;;;5051804;28;20303;-77
2022/09/02 01:17:40;;;;;;;2.17;1.43;;;;;;;;;;5035788;28;20189;-77
2022/09/02 01:20:10;;;;;;;1.47;1.37;;;;;;;;;;5035496;28;20276;-77
2022/09/02 01:22:37;;;;;;;1.50;1.40;;;;;;;;;;5035793;28;20191;-77
2022/09/02 01:25:12;;;;;;;2.23;1.43;;;;;;;;;;5035312;28;20208;-77
2022/09/02 01:27:38;;;;;;;1.53;1.40;;;;;;;;;;5052224;28;20177;-77
2022/09/02 01:30:06;;;;;;;1.30;1.20;;;;;;;;;;5051750;28;20177;-78
2022/09/02 01:32:32;;;;;;;1.50;1.40;;;;;;;;;;5035523;28;20257;-77
2022/09/02 01:34:58;;;;;;;2.30;1.40;;;;;;;;;;5051737;28;20232;-78
2022/09/02 01:37:24;;;;;;;2.17;1.47;;;;;;;;;;5035152;28;20228;-78
2022/09/02 01:39:51;;;;;;;1.87;1.30;;;;;;;;;;5051380;28;20512;-78
2022/09/02 01:42:17;;;;;;;2.00;1.33;;;;;;;;;;5052316;28;20185;-77
2022/09/02 01:44:43;;;;;;;2.00;1.70;;;;;;;;;;5052019;28;20319;-77
2022/09/02 01:47:13;;;;;;;2.03;1.60;;;;;;;;;;5035200;28;20181;-77
2022/09/02 01:49:39;;;;;;;3.30;1.60;;;;;;;;;;5051673;28;20178;-77
2022/09/02 01:52:06;;;;;;;2.40;1.50;;;;;;;;;;5035061;28;20644;-77
2022/09/02 01:54:32;;;;;;;1.40;1.30;;;;;;;;;;5051550;28;20264;-77
2022/09/02 01:56:58;;;;;;;1.60;1.50;;;;;;;;;;5035283;28;20220;-77
2022/09/02 01:59:24;;;;;;;1.60;1.40;;;;;;;;;;5035590;28;20643;-77
2022/09/02 02:01:50;;;;;;;2.80;1.40;;;;;;;;;;5051906;28;20178;-78
2022/09/02 02:04:16;;;;;;;1.70;1.50;;;;;;;;;;5051711;28;20288;-77
2022/09/02 02:06:43;;;;;;;2.60;1.60;;;;;;;;;;5038993;28;20209;-77
2022/09/02 02:09:10;;;;;;;1.70;1.60;;;;;;;;;;5039075;28;20166;-78
2022/09/02 02:11:36;;;;;;;1.70;1.60;;;;;;;;;;5055213;28;20256;-77
2022/09/02 02:14:03;;;;;;;1.70;1.57;;;;;;;;;;5054984;28;20229;-77
2022/09/02 02:16:29;;;;;;;1.40;1.30;;;;;;;;;;5055858;28;20173;-77
2022/09/02 02:18:55;;;;;;;2.23;1.40;;;;;;;;;;5054825;28;20178;-77
2022/09/02 02:21:21;;;;;;;3.10;1.60;;;;;;;;;;5038583;28;20188;-77
2022/09/02 02:23:47;;;;;;;1.90;1.70;;;;;;;;;;5055508;28;20198;-77
2022/09/02 02:26:13;;;;;;;2.27;1.60;;;;;;;;;;5055434;28;20205;-78
2022/09/02 02:28:39;;;;;;;2.37;1.50;;;;;;;;;;5054699;28;20174;-77
2022/09/02 02:31:06;;;;;;;1.77;1.57;;;;;;;;;;5038460;28;20182;-77
2022/09/02 02:33:34;;;;;;;1.47;1.33;;;;;;;;;;5055107;28;20205;-77
2022/09/02 02:36:00;;;;;;;1.77;1.50;;;;;;;;;;5055078;28;20182;-77
2022/09/02 02:38:26;;;;;;;2.33;1.50;;;;;;;;;;5038676;28;20182;-77
2022/09/02 02:40:56;;;;;;;2.80;1.57;;;;;;;;;;5038206;28;20190;-78
2022/09/02 02:43:23;;;;;;;1.50;1.40;;;;;;;;;;5038495;28;20258;-77
2022/09/02 02:45:49;;;;;;;1.73;1.63;;;;;;;;;;5038291;28;20217;-77
2022/09/02 02:48:15;;;;;;;1.83;1.40;;;;;;;;;;5038318;28;20553;-77
2022/09/02 02:50:41;;;;;;;1.77;1.47;;;;;;;;;;5038232;28;20183;-78
2022/09/02 02:53:07;;;;;;;1.70;1.60;;;;;;;;;;5054645;28;20181;-77
2022/09/02 02:55:34;;;;;;;1.70;1.60;;;;;;;;;;5054779;28;20182;-77
2022/09/02 02:58:00;;;;;;;2.67;1.57;;;;;;;;;;5055040;28;20179;-77
2022/09/02 03:00:28;;;;;;;2.23;1.60;;;;;;;;;;5054164;28;20192;-77
2022/09/02 03:02:59;;;;;;;2.20;1.77;;;;;;;;;;5054298;28;20210;-78
2022/09/02 03:05:25;;;;;;;2.50;1.50;;;;;;;;;;5054679;28;20202;-78
2022/09/02 03:07:51;;;;;;;2.60;1.90;;;;;;;;;;5054393;28;20174;-77
2022/09/02 03:10:17;;;;;;;1.60;1.50;;;;;;;;;;5037392;28;20176;-77
2022/09/02 03:12:46;;;;;;;1.80;1.40;;;;;;;;;;5038428;28;20180;-77
2022/09/02 03:15:15;;;;;;;1.83;1.43;;;;;;;;;;5054307;28;20217;-78
2022/09/02 03:17:41;;;;;;;1.40;1.30;;;;;;;;;;5054580;28;20187;-77
2022/09/02 03:20:07;;;;;;;1.67;1.50;;;;;;;;;;5037963;28;20182;-78
2022/09/02 03:22:36;;;;;;;1.63;1.50;;;;;;;;;;5037981;28;20188;-77
2022/09/02 03:25:02;;;;;;;1.63;1.40;;;;;;;;;;5053973;28;20214;-78
2022/09/02 03:27:28;;;;;;;2.70;1.40;;;;;;;;;;5037664;28;20181;-78
2022/09/02 03:29:55;;;;;;;1.47;1.37;;;;;;;;;;5053851;28;20184;-78
2022/09/02 03:32:21;;;;;;;3.23;2.03;;;;;;;;;;5037792;28;20186;-78
2022/09/02 03:34:47;;;;;;;1.60;1.50;;;;;;;;;;5037233;28;20202;-78
2022/09/02 03:37:13;;;;;;;1.83;1.63;;;;;;;;;;5037667;28;20187;-77
2022/09/02 03:39:39;;;;;;;1.60;1.40;;;;;;;;;;5037445;28;20184;-78
2022/09/02 03:42:06;;;;;;;2.93;1.97;;;;;;;;;;5037209;28;20200;-77
2022/09/02 03:44:33;;;;;;;2.40;1.80;;;;;;;;;;5036717;28;20296;-78
2022/09/02 03:46:59;;;;;;;1.63;1.53;;;;;;;;;;5054197;28;20178;-77
2022/09/02 03:49:27;;;;;;;2.10;1.90;;;;;;;;;;5037203;28;20181;-78
2022/09/02 03:51:53;;;;;;;2.07;1.53;;;;;;;;;;5054019;28;20206;-77
2022/09/02 03:54:20;;;;;;;6.47;1.60;;;;;;;;;;5053131;28;20190;-78
2022/09/02 03:56:46;;;;;;;1.97;1.50;;;;;;;;;;5037333;28;20574;-77
2022/09/02 03:59:12;;;;;;;1.87;1.60;;;;;;;;;;5053230;28;20173;-78
2022/09/02 04:01:38;;;;;;;2.13;1.70;;;;;;;;;;5053770;28;20190;-77
2022/09/02 04:04:04;;;;;;;2.47;1.40;;;;;;;;;;5037019;28;20198;-77
2022/09/02 04:06:31;;;;;;;2.23;1.70;;;;;;;;;;5053105;28;20228;-77
2022/09/02 04:08:57;;;;;;;1.83;1.63;;;;;;;;;;5053451;28;20189;-78
2022/09/02 04:11:23;;;;;;;2.50;1.50;;;;;;;;;;5036305;28;20177;-77
2022/09/02 04:13:50;;;;;;;1.60;1.50;;;;;;;;;;5036708;28;20218;-78
2022/09/02 04:22:24;;;;;;;1.70;1.60;;;;;;;;;;5054132;28;20218;-77
2022/09/02 04:24:50;;;;;;;3.93;1.67;;;;;;;;;;5036505;28;20214;-78
2022/09/02 04:27:16;;;;;;;2.77;1.60;;;;;;;;;;5036090;28;20212;-78
2022/09/02 04:29:42;;;;;;;1.53;1.43;;;;;;;;;;5036858;28;20181;-78
2022/09/02 04:32:08;;;;;;;1.60;1.50;;;;;;;;;;5036475;28;20597;-78
2022/09/02 04:34:34;;;;;;;1.83;1.70;;;;;;;;;;5036388;28;20223;-77
2022/09/02 04:37:00;;;;;;;2.37;1.50;;;;;;;;;;5036533;28;20178;-77
2022/09/02 04:39:26;;;;;;;1.70;1.60;;;;;;;;;;5035699;28;20284;-77
2022/09/02 04:41:52;;;;;;;1.73;1.50;;;;;;;;;;5036615;28;20216;-78
2022/09/02 04:44:18;;;;;;;2.00;1.67;;;;;;;;;;5034856;28;20198;-79
2022/09/02 04:46:45;;;;;;;1.67;1.57;;;;;;;;;;5034380;28;20188;-79
2022/09/02 04:49:11;;;;;;;2.83;1.40;;;;;;;;;;5034193;28;20182;-79
2022/09/02 04:51:37;;;;;;;1.70;1.60;;;;;;;;;;5051211;28;20558;-79
2022/09/02 04:54:03;;;;;;;1.93;1.60;;;;;;;;;;5034565;28;20207;-79
2022/09/02 04:56:31;;;;;;;1.90;1.50;;;;;;;;;;5050944;28;20166;-79
2022/09/02 04:58:57;;;;;;;3.13;1.60;;;;;;;;;;5050794;28;20175;-79
2022/09/02 05:01:25;;;;;;;1.63;1.53;;;;;;;;;;5050876;28;20188;-78
2022/09/02 05:03:52;;;;;;;2.43;1.47;;;;;;;;;;5034309;28;20194;-78
2022/09/02 05:06:20;;;;;;;2.33;1.70;;;;;;;;;;5050672;28;20212;-78
2022/09/02 05:08:49;;;;;;;2.50;1.70;;;;;;;;;;5050832;28;20267;-78
2022/09/02 05:11:18;;;;;;;2.43;1.90;;;;;;;;;;5050552;28;20180;-78
2022/09/02 05:13:48;;;;;;;1.70;1.60;;;;;;;;;;5090658;22;20223;-74
2022/09/02 05:16:19;;;;;;;4.00;1.67;;;;;;;;;;5050601;28;20266;-75
2022/09/02 05:18:45;;;;;;;1.70;1.60;;;;;;;;;;5050934;28;20189;-74
2022/09/02 05:21:11;;;;;;;1.70;1.60;;;;;;;;;;5050880;28;20177;-74
2022/09/02 05:23:37;;;;;;;2.67;1.60;;;;;;;;;;5050550;28;20732;-74
2022/09/02 05:26:07;;;;;;;3.30;1.70;;;;;;;;;;5050478;28;20216;-74
2022/09/02 05:28:34;;;;;;;1.50;1.40;;;;;;;;;;5050411;28;20174;-74
2022/09/02 05:31:07;;;;;;;1.80;1.70;;;;;;;;;;5050474;28;20231;-74
2022/09/02 05:33:36;;;;;;;1.90;1.50;;;;;;;;;;5050543;28;20197;-74
2022/09/02 05:36:02;;;;;;;1.73;1.50;;;;;;;;;;5034650;28;20216;-75
2022/09/02 05:38:29;;;;;;;1.90;1.70;;;;;;;;;;5033897;28;20615;-78
2022/09/02 05:40:55;;;;;;;2.00;1.80;;;;;;;;;;5053061;28;20184;-77
2022/09/02 05:43:21;;;;;;;2.70;1.60;;;;;;;;;;5055340;28;20196;-77
2022/09/02 05:45:48;;;;;;;1.87;1.60;;;;;;;;;;5054098;28;20216;-77
2022/09/02 05:50:59;;;;;;;2.00;1.63;;;;;;;;;;5054656;28;20308;-76
2022/09/02 05:53:25;;;;;;;1.80;1.50;;;;;;;;;;5037483;28;20186;-77
2022/09/02 05:55:51;;;;;;;2.37;1.80;;;;;;;;;;5037573;28;20181;-77
2022/09/02 05:58:18;;;;;;;2.73;1.77;;;;;;;;;;5054221;28;20686;-78
2022/09/02 06:00:44;;;;;;;2.00;1.83;;;;;;;;;;5037220;28;20231;-76
2022/09/02 06:03:11;;;;;;;2.30;2.10;;;;;;;;;;5037499;28;20200;-77
2022/09/02 06:05:37;;;;;;;2.07;1.73;;;;;;;;;;5053790;28;20296;-77
2022/09/02 06:08:03;;;;;;;3.73;1.90;;;;;;;;;;5037357;28;20177;-77
2022/09/02 06:10:29;;;;;;;2.60;1.73;;;;;;;;;;5053310;28;20174;-77
2022/09/02 06:12:56;;;;;;;2.50;1.90;;;;;;;;;;5037229;28;20529;-77
2022/09/02 06:15:22;;;;;;;3.43;1.97;;;;;;;;;;5037224;28;20220;-77
2022/09/02 06:17:48;;;;;;;2.13;1.80;;;;;;;;;;5053655;28;20173;-78
2022/09/02 06:20:14;;;;;;;3.00;1.80;;;;;;;;;;5036964;28;20185;-76
2022/09/02 06:22:40;;;;;;;1.97;1.77;;;;;;;;;;5037045;28;20279;-76
2022/09/02 06:25:06;;;;;;;2.10;1.90;;;;;;;;;;5036786;28;20221;-78
2022/09/02 06:27:32;;;;;;;1.90;1.70;;;;;;;;;;5053740;28;20181;-77
2022/09/02 06:29:58;;;;;;;2.43;1.90;;;;;;;;;;5053358;28;20178;-77
2022/09/02 06:32:24;;;;;;;1.70;1.60;;;;;;;;;;5053703;28;20173;-77
2022/09/02 06:34:50;;;;;;;2.70;1.50;;;;;;;;;;5036839;28;20233;-77
2022/09/02 06:37:16;;;;;;;2.00;1.70;;;;;;;;;;5037058;28;20212;-78
2022/09/02 06:39:43;;;;;;;2.17;1.97;;;;;;;;;;5053128;28;20213;-78
2022/09/02 06:42:09;;;;;;;1.83;1.70;;;;;;;;;;5036862;28;20177;-79
2022/09/02 06:44:36;;;;;;;1.80;1.70;;;;;;;;;;5053279;28;20280;-78
2022/09/02 06:47:02;;;;;;;2.03;1.83;;;;;;;;;;5036959;28;20184;-77
2022/09/02 06:49:29;;;;;;;4.50;2.00;;;;;;;;;;5036522;28;20178;-76
2022/09/02 06:51:55;;;;;;;2.47;2.10;;;;;;;;;;5036373;28;20174;-77
2022/09/02 06:54:22;;;;;;;2.67;1.80;;;;;;;;;;5052943;28;20194;-77
2022/09/02 06:56:49;;;;;;;2.67;1.97;;;;;;;;;;5052845;28;20273;-76
2022/09/02 06:59:16;;;;;;;3.40;1.90;;;;;;;;;;5053825;28;20170;-76
2022/09/02 07:01:43;;;;;;;3.70;1.80;;;;;;;;;;5053909;28;20173;-77
2022/09/02 07:06:54;;;;;;;6.33;1.83;;;;;;;;;;5053165;28;20193;-77
2022/09/02 07:09:21;;;;;;;2.47;1.63;;;;;;;;;;5052402;28;20169;-77
2022/09/02 07:11:48;;;;;;;2.37;1.60;;;;;;;;;;5035672;28;20272;-77
2022/09/02 07:14:19;;;;;;;2.97;1.73;;;;;;;;;;5052527;28;20694;-77
2022/09/02 07:16:46;;;;;;;2.70;1.63;;;;;;;;;;5052421;28;20184;-76
2022/09/02 07:19:12;;;;;;;4.20;2.17;;;;;;;;;;5052238;28;20178;-76
2022/09/02 07:21:40;;;;;;;2.33;1.67;;;;;;;;;;5036119;28;20182;-77
2022/09/02 07:24:07;;;;;;;2.63;1.70;;;;;;;;;;5035948;28;20213;-77
2022/09/02 07:26:33;;;;;;;3.23;1.97;;;;;;;;;;5052233;28;20209;-76
2022/09/02 07:28:59;;;;;;;2.50;1.83;;;;;;;;;;5052110;28;20185;-77
2022/09/02 07:31:28;;;;;;;2.20;1.67;;;;;;;;;;5053498;28;20222;-76
2022/09/02 07:33:57;;;;;;;4.10;1.77;;;;;;;;;;5036256;28;20208;-77
2022/09/02 07:36:24;;;;;;;4.23;1.97;;;;;;;;;;5052503;28;20259;-76
2022/09/02 07:38:50;;;;;;;3.23;1.67;;;;;;;;;;5051795;28;20212;-77
2022/09/02 07:41:16;;;;;;;3.13;1.70;;;;;;;;;;5051416;28;20189;-77
2022/09/02 07:43:42;;;;;;;2.83;1.50;;;;;;;;;;5051690;28;20721;-77
2022/09/02 07:46:08;;;;;;;2.27;1.77;;;;;;;;;;5051660;28;20193;-77
2022/09/02 07:48:34;;;;;;;2.23;1.50;;;;;;;;;;5051890;28;20213;-78
2022/09/02 07:51:00;;;;;;;2.50;1.80;;;;;;;;;;5035127;28;20197;-76
2022/09/02 07:53:27;;;;;;;2.13;1.50;;;;;;;;;;5035466;28;20269;-77
2022/09/02 07:55:53;;;;;;;2.47;1.70;;;;;;;;;;5051839;28;20528;-77
2022/09/02 07:58:21;;;;;;;4.47;1.53;;;;;;;;;;5035190;28;20205;-77
2022/09/02 08:00:47;;;;;;;3.53;1.63;;;;;;;;;;5052637;28;20514;-77
2022/09/02 08:03:14;;;;;;;3.10;1.43;;;;;;;;;;5050386;28;20178;-77
2022/09/02 08:05:41;;;;;;;2.93;1.77;;;;;;;;;;5051564;28;20217;-76
2022/09/02 08:08:07;;;;;;;2.60;1.63;;;;;;;;;;5051664;28;20181;-77
2022/09/02 08:10:34;;;;;;;2.07;1.40;;;;;;;;;;5051433;28;20180;-77
2022/09/02 08:13:00;;;;;;;2.97;1.40;;;;;;;;;;5051412;28;20184;-77
2022/09/02 08:15:27;;;;;;;1.97;1.50;;;;;;;;;;5051189;28;20228;-77
2022/09/02 08:17:54;;;;;;;2.17;1.20;;;;;;;;;;5051301;28;20181;-77
2022/09/02 08:20:20;;;;;;;3.10;1.50;;;;;;;;;;5052461;28;20169;-76
2022/09/02 08:22:46;;;;;;;2.23;1.60;;;;;;;;;;5052853;28;20190;-76
2022/09/02 08:25:12;;;;;;;2.40;1.47;;;;;;;;;;5034531;28;20263;-76
2022/09/02 08:27:38;;;;;;;3.33;1.40;;;;;;;;;;5052515;28;20166;-76
2022/09/02 08:30:06;;;;;;;2.23;1.40;;;;;;;;;;5034620;28;20588;-76
2022/09/02 08:32:32;;;;;;;2.07;1.33;;;;;;;;;;5052605;28;20173;-76
2022/09/02 08:35:01;;;;;;;1.60;1.33;;;;;;;;;;5051141;28;20550;-76
2022/09/02 08:37:28;;;;;;;1.77;1.10;;;;;;;;;;5050982;28;20173;-76
2022/09/02 08:39:54;;;;;;;1.70;1.13;;;;;;;;;;5050809;28;20209;-77
2022/09/02 08:42:23;;;;;;;3.03;1.20;;;;;;;;;;5051139;28;20237;-76
2022/09/02 08:44:50;;;;;;;1.30;1.17;;;;;;;;;;5052470;28;20217;-75
2022/09/02 08:47:20;;;;;;;3.77;1.20;;;;;;;;;;5035218;28;20189;-75
2022/09/02 08:49:58;;;;;;;2.33;1.10;;;;;;;;;;5051351;28;20174;-76
2022/09/02 08:52:28;;;;;;;1.77;1.17;;;;;;;;;;5034891;28;20624;-76
2022/09/02 08:54:54;;;;;;;2.22;1.10;;;;;;;;;;5051341;28;20189;-76
2022/09/02 08:57:25;;;;;;;2.20;1.00;;;;;;;;;;5050732;28;20182;-76
2022/09/02 08:59:51;;;;;;;2.20;1.07;;;;;;;;;;5052116;28;20174;-76
2022/09/02 09:02:19;;;;;;;1.90;1.10;;;;;;;;;;5050695;28;20185;-76
2022/09/02 09:05:05;;;;;;;1.20;1.00;;;;;;;;;;5050749;28;20676;-76
2022/09/02 09:07:34;;;;;;;1.65;1.20;;;;;;;;;;5050613;28;20177;-76
2022/09/02 09:10:04;;;;;;;1.20;0.95;;;;;;;;;;5050388;28;20233;-77
2022/09/02 09:12:51;;;;;;;3.42;1.30;;;;;;;;;;5050887;28;20174;-76
2022/09/02 09:15:17;;;;;;;1.08;0.98;;;;;;;;;;5054001;28;20255;-76
2022/09/02 09:17:43;;;;;;;1.88;1.10;;;;;;;;;;5054793;28;20204;-76
2022/09/02 09:20:16;;;;;;;1.30;1.00;;;;;;;;;;5055673;28;20174;-76
2022/09/02 09:22:43;;;;;;;1.50;1.00;;;;;;;;;;5054960;28;20177;-77
2022/09/02 09:25:10;;;;;;;1.35;1.00;;;;;;;;;;5038108;28;20205;-77
2022/09/02 09:27:37;;;;;;;2.67;1.10;;;;;;;;;;5038435;28;20250;-78
2022/09/02 09:30:06;;;;;;;1.25;1.00;;;;;;;;;;5054686;28;20169;-76
2022/09/02 09:32:37;;;;;;;1.10;0.90;;;;;;;;;;5038191;28;20181;-77
2022/09/02 09:35:08;;;;;;;1.75;1.10;;;;;;;;;;5054205;28;20201;-77
2022/09/02 09:37:34;;;;;;;1.38;1.10;;;;;;;;;;5054561;28;20189;-77
2022/09/02 09:40:00;;;;;;;1.15;1.02;;;;;;;;;;5054094;28;20194;-77
2022/09/02 09:42:30;;;;;;;1.55;1.10;;;;;;;;;;5054346;28;20178;-77
2022/09/02 09:44:56;;;;;;;2.35;1.05;;;;;;;;;;5054166;28;20241;-77
2022/09/02 09:47:24;;;;;;;1.30;1.10;;;;;;;;;;5037720;28;20259;-78
2022/09/02 09:49:52;;;;;;;3.70;1.02;;;;;;;;;;5054003;28;20169;-77
2022/09/02 09:52:22;;;;;;;1.98;1.10;;;;;;;;;;5037633;28;20206;-78
2022/09/02 09:55:05;;;;;;;1.13;1.00;;;;;;;;;;5054019;28;20193;-81
2022/09/02 09:57:31;;;;;;;2.25;1.33;;;;;;;;;;5054305;28;20174;-78
2022/09/02 10:00:00;;;;;;;2.95;1.10;;;;;;;;;;5054274;28;20304;-77
2022/09/02 10:02:27;;;;;;;1.20;1.10;;;;;;;;;;5053886;28;20173;-77
2022/09/02 10:04:54;;;;;;;1.13;1.02;;;;;;;;;;5037226;28;20206;-78
2022/09/02 10:07:40;;;;;;;1.63;0.90;;;;;;;;;;5037219;28;20299;-77
2022/09/02 10:10:14;;;;;;;1.10;0.90;;;;;;;;;;5054761;28;20247;-77
2022/09/02 10:12:41;;;;;;;1.10;1.00;;;;;;;;;;5054070;28;20549;-77
2022/09/02 10:15:08;;;;;;;1.13;1.00;;;;;;;;;;5053462;28;20237;-77
2022/09/02 10:17:43;;;;;;;1.08;0.95;;;;;;;;;;5053494;28;20192;-77
2022/09/02 10:20:17;;;;;;;2.72;1.33;;;;;;;;;;5053398;28;20173;-78
2022/09/02 10:22:43;;;;;;;2.05;1.20;;;;;;;;;;5053429;28;20170;-78
2022/09/02 10:25:19;;;;;;;3.00;1.13;;;;;;;;;;5052735;28;20220;-78
2022/09/02 10:28:06;;;;;;;1.23;1.00;;;;;;;;;;5053528;28;20169;-77
2022/09/02 10:30:37;;;;;;;4.13;1.15;;;;;;;;;;5053352;28;20307;-78
2022/09/02 10:33:19;;;;;;;1.30;1.10;;;;;;;;;;5053749;28;20223;-77
2022/09/02 10:35:45;;;;;;;1.20;1.10;;;;;;;;;;5053248;28;20177;-77
2022/09/02 10:38:30;;;;;;;2.65;1.10;;;;;;;;;;5053348;28;20205;-77
2022/09/02 10:41:00;;;;;;;2.17;1.30;;;;;;;;;;5053273;28;20467;-76
2022/09/02 10:43:41;;;;;;;1.45;1.10;;;;;;;;;;5052942;28;20628;-76
2022/09/02 10:46:09;;;;;;;1.25;1.10;;;;;;;;;;5052966;28;20205;-77
2022/09/02 15:01:29;;;;;;;1.20;1.10;;;;;;;;;;5012465;28;20308;-78
2022/09/02 15:03:56;;;;;;;1.20;1.10;;;;;;;;;;4999428;28;20214;-79
2022/09/02 15:06:22;;;;;;;1.33;1.20;;;;;;;;;;5015562;28;20253;-78
2022/09/02 15:08:49;;;;;;;1.20;1.00;;;;;;;;;;4998204;28;20179;-78
2022/09/02 15:11:19;;;;;;;1.20;1.10;;;;;;;;;;4979153;28;20199;-78
2022/09/02 15:13:45;;;;;;;1.25;1.15;;;;;;;;;;4979960;28;20180;-78
2022/09/02 15:22:19;;;;;;;2.28;1.20;;;;;;;;;;4995976;28;20163;-80
2022/09/02 15:24:47;;;;;;;2.13;1.20;;;;;;;;;;4991647;28;20180;-80
2022/09/02 15:27:13;;;;;;;1.58;1.02;;;;;;;;;;4991132;28;20183;-80
2022/09/02 15:29:39;;;;;;;1.40;1.10;;;;;;;;;;5001857;28;20258;-80
2022/09/02 15:32:05;;;;;;;1.42;1.23;;;;;;;;;;4994152;28;20172;-80
2022/09/02 15:34:33;;;;;;;1.45;1.20;;;;;;;;;;5010025;28;20226;-80
2022/09/02 15:36:59;;;;;;;1.30;1.20;;;;;;;;;;5010304;28;20561;-81
2022/09/02 15:39:25;;;;;;;1.38;1.00;;;;;;;;;;5009681;28;20187;-81
2022/09/02 15:41:53;;;;;;;2.13;1.27;;;;;;;;;;5009669;28;20198;-81
2022/09/02 15:44:19;;;;;;;1.30;1.20;;;;;;;;;;5009703;28;20202;-81
2022/09/02 15:46:45;;;;;;;1.20;1.10;;;;;;;;;;5009703;28;20208;-81
2022/09/02 15:49:12;;;;;;;1.75;1.02;;;;;;;;;;4997341;28;20167;-80
2022/09/02 15:51:39;;;;;;;1.25;1.10;;;;;;;;;;4998126;28;20184;-80
2022/09/02 15:54:06;;;;;;;1.88;1.20;;;;;;;;;;5014070;28;20180;-80
2022/09/02 15:56:33;;;;;;;1.35;1.13;;;;;;;;;;4997853;28;20186;-80
2022/09/02 15:59:03;;;;;;;4.50;1.40;;;;;;;;;;5014139;28;20206;-80
2022/09/02 16:01:30;;;;;;;2.35;1.27;;;;;;;;;;4997884;28;20192;-80
2022/09/02 16:03:57;;;;;;;1.70;1.20;;;;;;;;;;5014306;28;20206;-80
2022/09/02 16:06:23;;;;;;;1.85;1.10;;;;;;;;;;4998502;28;20211;-80
2022/09/02 16:08:50;;;;;;;1.20;1.10;;;;;;;;;;4997135;28;20199;-80
2022/09/02 16:11:16;;;;;;;1.30;1.20;;;;;;;;;;5014143;28;20202;-80
2022/09/02 16:13:42;;;;;;;1.30;1.20;;;;;;;;;;5014216;28;20175;-80
2022/09/02 16:16:09;;;;;;;2.13;1.10;;;;;;;;;;5013319;28;20175;-80
2022/09/02 16:18:35;;;;;;;1.15;1.05;;;;;;;;;;5014516;28;20206;-80
2022/09/02 16:21:01;;;;;;;2.25;1.20;;;;;;;;;;4997008;28;20203;-80
2022/09/02 16:23:27;;;;;;;1.50;1.35;;;;;;;;;;5013360;28;20191;-80
2022/09/02 16:26:29;;;;;;;2.45;1.30;;;;;;;;;;4997194;28;20210;-80
2022/09/02 16:28:56;;;;;;;1.45;1.20;;;;;;;;;;4902983;29;20178;-80
2022/09/02 16:31:23;;;;;;;1.67;1.10;;;;;;;;;;4977579;28;20215;-80
2022/09/02 16:34:06;;;;;;;2.38;1.13;;;;;;;;;;4996145;28;20262;-80
2022/09/02 16:36:33;;;;;;;1.30;1.20;;;;;;;;;;5021393;28;20225;-80
2022/09/02 16:39:02;;;;;;;1.95;1.20;;;;;;;;;;5021536;28;20184;-80
2022/09/02 16:41:48;;;;;;;2.65;1.23;;;;;;;;;;5021354;28;20176;-80
2022/09/02 16:44:15;;;;;;;1.33;1.20;;;;;;;;;;5004327;28;20257;-80
2022/09/02 16:46:42;;;;;;;1.30;1.20;;;;;;;;;;5014882;28;20271;-80
2022/09/02 16:49:09;;;;;;;1.30;1.00;;;;;;;;;;5018495;28;20172;-80
2022/09/02 16:51:38;;;;;;;2.17;1.40;;;;;;;;;;5001722;28;20195;-80
2022/09/02 16:54:04;;;;;;;1.20;1.10;;;;;;;;;;5014920;28;20168;-79
2022/09/02 16:56:31;;;;;;;1.75;1.33;;;;;;;;;;4997564;28;20664;-79
2022/09/02 16:59:00;;;;;;;1.83;1.20;;;;;;;;;;5015455;28;20239;-78
2022/09/02 17:01:26;;;;;;;1.48;1.25;;;;;;;;;;4992199;28;20248;-79
2022/09/02 17:03:52;;;;;;;2.28;1.50;;;;;;;;;;5008156;28;20183;-79
2022/09/02 17:06:18;;;;;;;1.90;1.40;;;;;;;;;;4993474;28;20203;-80
2022/09/02 17:08:44;;;;;;;2.13;1.45;;;;;;;;;;5015928;28;20198;-80
2022/09/02 17:11:18;;;;;;;2.83;1.20;;;;;;;;;;5004075;28;20568;-77
2022/09/02 17:13:45;;;;;;;4.95;1.20;;;;;;;;;;5012276;28;20235;-81
2022/09/02 17:16:11;;;;;;;1.70;1.27;;;;;;;;;;4997252;28;20708;-79
2022/09/02 17:18:37;;;;;;;1.52;1.23;;;;;;;;;;4998041;28;20215;-79
2022/09/02 17:21:14;;;;;;;1.30;1.20;;;;;;;;;;4993517;28;20662;-79
2022/09/02 17:23:41;;;;;;;1.42;1.33;;;;;;;;;;5008505;28;20183;-79
2022/09/02 17:26:07;;;;;;;1.20;1.10;;;;;;;;;;4996484;28;20203;-80
2022/09/02 17:28:33;;;;;;;2.42;1.40;;;;;;;;;;5015072;28;20183;-78
2022/09/02 17:30:59;;;;;;;1.48;1.17;;;;;;;;;;5012125;28;20196;-79
2022/09/02 17:33:25;;;;;;;1.90;1.20;;;;;;;;;;5011949;28;20669;-81
2022/09/02 17:35:55;;;;;;;1.25;1.15;;;;;;;;;;4995123;28;20274;-79
2022/09/02 17:38:21;;;;;;;2.28;1.30;;;;;;;;;;5012688;28;20186;-78
2022/09/02 17:43:31;;;;;;;4.90;1.30;;;;;;;;;;5000033;28;20199;-79
2022/09/02 17:46:07;;;;;;;2.58;1.27;;;;;;;;;;5014850;28;20195;-79
2022/09/02 17:48:34;;;;;;;1.30;1.20;;;;;;;;;;4997992;28;20218;-79
2022/09/02 17:51:00;;;;;;;2.45;1.42;;;;;;;;;;4997174;28;20219;-79
2022/09/02 17:53:26;;;;;;;1.98;1.20;;;;;;;;;;5000091;28;20607;-80
2022/09/02 17:55:56;;;;;;;1.27;1.17;;;;;;;;;;4996856;28;20231;-78
2022/09/02 17:58:22;;;;;;;1.60;1.50;;;;;;;;;;5011020;28;20172;-77
2022/09/02 18:00:55;;;;;;;3.00;1.40;;;;;;;;;;4978927;28;20211;-79
2022/09/02 18:03:24;;;;;;;1.35;1.23;;;;;;;;;;5011681;28;20229;-79
2022/09/02 18:06:08;;;;;;;1.20;1.10;;;;;;;;;;5012826;28;20628;-78
2022/09/02 18:08:39;;;;;;;1.23;1.13;;;;;;;;;;5013868;28;20266;-79
2022/09/02 18:11:06;;;;;;;1.33;1.23;;;;;;;;;;4998552;28;20254;-79
2022/09/02 18:13:51;;;;;;;1.77;1.10;;;;;;;;;;4998114;28;20179;-79
2022/09/02 18:16:33;;;;;;;1.60;1.10;;;;;;;;;;5013910;28;20680;-80
2022/09/02 18:19:18;;;;;;;2.17;1.20;;;;;;;;;;5004803;28;20661;-79
2022/09/02 18:22:10;;;;;;;1.73;1.15;;;;;;;;;;5013509;28;20267;-79
2022/09/02 18:24:47;;;;;;;1.40;1.30;;;;;;;;;;4960807;28;20195;-79
2022/09/02 18:27:23;;;;;;;1.70;1.10;;;;;;;;;;5013114;28;20207;-79
2022/09/02 18:29:52;;;;;;;1.38;1.20;;;;;;;;;;5013397;28;20218;-79
2022/09/02 18:32:34;;;;;;;1.35;1.10;;;;;;;;;;5012852;28;20263;-79
2022/09/02 18:35:06;;;;;;;1.33;1.23;;;;;;;;;;5013711;28;20183;-79
2022/09/02 18:37:38;;;;;;;1.10;1.10;;;;;;;;;;5012539;28;20180;-79
2022/09/02 18:40:23;;;;;;;1.30;1.20;;;;;;;;;;5012282;28;20196;-79
2022/09/02 18:43:09;;;;;;;1.30;1.20;;;;;;;;;;5012582;28;20171;-79
2022/09/02 18:45:48;;;;;;;1.35;1.10;;;;;;;;;;4997826;28;20195;-79
2022/09/02 18:48:26;;;;;;;1.60;1.40;;;;;;;;;;5012011;28;20180;-79
2022/09/02 18:50:55;;;;;;;0.90;0.90;;;;;;;;;;5012469;28;20203;-80
2022/09/02 18:53:29;;;;;;;2.42;1.20;;;;;;;;;;5012626;28;20230;-79
2022/09/02 18:55:57;;;;;;;1.23;1.05;;;;;;;;;;5012614;28;20179;-79
2022/09/02 18:58:42;;;;;;;1.92;1.20;;;;;;;;;;4997364;28;20187;-79
2022/09/02 19:01:23;;;;;;;1.92;1.67;;;;;;;;;;5013686;28;20203;-79
2022/09/02 19:03:50;;;;;;;1.80;1.20;;;;;;;;;;5010725;28;20606;-79
2022/09/02 19:06:21;;;;;;;2.28;1.23;;;;;;;;;;5010468;28;20211;-79
2022/09/02 19:08:48;;;;;;;1.63;1.20;;;;;;;;;;5010298;28;20171;-79
2022/09/02 19:11:15;;;;;;;1.92;0.85;;;;;;;;;;4995334;28;20195;-78
2022/09/02 19:13:41;;;;;;;1.20;1.10;;;;;;;;;;4994734;28;20184;-78
2022/09/02 19:16:07;;;;;;;2.00;1.20;;;;;;;;;;5009661;28;20643;-78
2022/09/02 19:18:34;;;;;;;1.15;1.00;;;;;;;;;;4993247;28;20620;-78
2022/09/02 19:21:00;;;;;;;2.40;1.27;;;;;;;;;;4977035;28;20213;-78
2022/09/02 19:23:27;;;;;;;1.88;1.10;;;;;;;;;;5009436;28;20557;-78